CNY4 weather

Alliston Airport
Alliston, Ontario, Canada

Public forecast

Using degrees Celsius for public forecast. Weather courtesy of forecast.io.

METAR (pilot weather report)

Closest report is CFB Borden, 6.2 nm (11.5 km) NNW. Retrieved 2019/05/24 01:00 UTC (11 minutes ago):

CYBN 240100Z AUTO 30008G16KT 250V320 9SM SCT054 BKN066 OVC073 16/09 A2987 RMK SLP118

TAF (pilot weather forecast)

Forecast is more than 12 hours old.

Closest forecast is CFB Borden, 6.2 nm (11.5 km) NNW. Retrieved 2019/05/23 00:33 UTC (1 day ago):

TAF TAF CYBN 232330Z 2400/2412 32012G22KT P6SM SCT060 TEMPO 2400/2403 BKN060 BECMG 2403/2405 32010KT FM240900 30008KT P6SM BKN025 TEMPO 2409/2412 BKN020 RMK FCST BASED ON AUTO OBS. NXT FCST BY 240600Z